Time;durP1;ratioP1;P1;durP2;ratioP2;P2;SDS_P1;SDS_P2;PMS_P1;PMS_P2;Temp;Humidity;BMP_temperature;BMP_pressure;BME280_temperature;BME280_humidity;BME280_pressure;Samples;Min_cycle;Max_cycle;Signal;HPM_P1;HPM_P2
2023/01/31 00:01:26;;;;;;;11.52;3.55;;;;;;;2.60;100.00;100957.72;6309278;28;20562;-87
2023/01/31 00:04:28;;;;;;;8.57;2.45;;;;;;;2.72;100.00;100975.13;6305169;28;20776;-87
2023/01/31 00:07:30;;;;;;;15.18;2.55;;;;;;;2.81;100.00;100976.50;6309370;28;20399;-86
2023/01/31 00:10:32;;;;;;;17.42;2.22;;;;;;;2.76;100.00;100971.56;6306433;28;20051;-87
2023/01/31 00:13:34;;;;;;;13.90;2.00;;;;;;;2.83;100.00;100973.88;6306867;28;20159;-86
2023/01/31 00:16:36;;;;;;;12.98;2.17;;;;;;;2.94;100.00;100979.41;6307985;28;20102;-87
2023/01/31 00:19:38;;;;;;;18.85;2.28;;;;;;;2.98;100.00;100963.03;6308784;28;20121;-86
2023/01/31 00:22:40;;;;;;;14.32;1.98;;;;;;;3.01;100.00;100980.81;6310369;28;20059;-87
2023/01/31 00:25:42;;;;;;;8.05;1.73;;;;;;;3.06;100.00;100973.78;6309568;28;20329;-87
2023/01/31 00:28:45;;;;;;;9.88;1.60;;;;;;;3.05;100.00;100977.22;6310028;28;20104;-87
2023/01/31 00:31:47;;;;;;;8.85;1.80;;;;;;;3.02;100.00;100988.41;6303421;28;20040;-88
2023/01/31 00:34:52;;;;;;;8.07;1.52;;;;;;;2.88;100.00;100985.59;6299477;28;20140;-88
2023/01/31 00:37:54;;;;;;;7.05;1.50;;;;;;;2.82;100.00;100987.56;6305377;28;20040;-88
2023/01/31 00:40:56;;;;;;;5.15;1.77;;;;;;;2.75;100.00;100994.63;6309643;28;20151;-89
2023/01/31 00:43:59;;;;;;;5.65;1.58;;;;;;;2.63;100.00;100985.69;6307225;28;20051;-89
2023/01/31 00:47:01;;;;;;;8.35;1.52;;;;;;;2.57;100.00;100993.63;6306325;28;20079;-88
2023/01/31 00:50:04;;;;;;;9.63;1.83;;;;;;;2.52;100.00;100998.91;6306255;28;20498;-87
2023/01/31 00:53:06;;;;;;;10.18;2.25;;;;;;;2.56;100.00;101014.97;6303401;28;20120;-89
2023/01/31 00:56:14;;;;;;;5.10;1.50;;;;;;;2.70;100.00;101001.63;6301016;28;20835;-88
2023/01/31 00:59:16;;;;;;;13.30;2.90;;;;;;;2.70;100.00;100997.34;6310229;28;20036;-89
2023/01/31 01:02:18;;;;;;;11.45;2.33;;;;;;;2.71;100.00;101006.69;6308737;28;20112;-92
2023/01/31 01:05:20;;;;;;;13.32;1.73;;;;;;;2.71;100.00;101003.31;6308791;28;20119;-90
2023/01/31 01:08:22;;;;;;;14.57;2.45;;;;;;;2.69;100.00;101012.75;6309493;28;20390;-90
2023/01/31 01:11:29;;;;;;;15.35;2.42;;;;;;;2.67;100.00;101027.31;6307389;28;20040;-90
2023/01/31 01:14:31;;;;;;;14.98;2.35;;;;;;;2.67;100.00;101029.88;6302429;28;20058;-89
2023/01/31 01:17:32;;;;;;;12.60;2.30;;;;;;;2.77;100.00;101043.97;6309272;28;20052;-88
2023/01/31 01:20:35;;;;;;;11.98;2.00;;;;;;;2.77;100.00;101033.75;6307235;28;20039;-88
2023/01/31 01:23:39;;;;;;;17.25;3.00;;;;;;;2.76;100.00;101019.31;6309174;28;20509;-88
2023/01/31 01:26:42;;;;;;;16.02;2.58;;;;;;;2.76;100.00;101032.91;6308416;28;20051;-87
2023/01/31 01:29:43;;;;;;;9.07;1.85;;;;;;;2.66;100.00;101030.75;6308536;28;20043;-87
2023/01/31 01:32:46;;;;;;;14.70;1.90;;;;;;;2.65;100.00;101027.38;6305572;28;20490;-88
2023/01/31 01:35:48;;;;;;;15.80;2.95;;;;;;;2.63;100.00;101039.38;6306437;28;20051;-87
2023/01/31 01:38:51;;;;;;;9.13;2.45;;;;;;;2.74;100.00;101047.47;6304327;28;20047;-87
2023/01/31 01:41:54;;;;;;;14.48;2.58;;;;;;;2.80;100.00;101042.13;6307438;28;20047;-87
2023/01/31 01:45:01;;;;;;;13.77;2.55;;;;;;;2.80;100.00;101048.97;6305528;28;20044;-87
2023/01/31 01:48:07;;;;;;;15.07;3.13;;;;;;;2.67;100.00;101047.75;6306672;28;20059;-86
2023/01/31 01:51:11;;;;;;;11.52;2.05;;;;;;;2.70;100.00;101068.91;6298146;28;20454;-87
2023/01/31 01:54:20;;;;;;;12.60;3.13;;;;;;;2.75;100.00;101068.75;6291979;28;20843;-86
2023/01/31 01:57:29;;;;;;;21.10;2.67;;;;;;;2.66;100.00;101059.72;6282193;28;20487;-86
2023/01/31 02:00:33;;;;;;;7.75;2.20;;;;;;;2.57;100.00;101072.84;6299898;28;20048;-86
2023/01/31 02:03:37;;;;;;;9.38;1.88;;;;;;;2.58;100.00;101077.03;6294048;28;20048;-86
2023/01/31 02:06:39;;;;;;;12.57;2.20;;;;;;;2.63;100.00;101070.03;6292381;28;20069;-87
2023/01/31 02:09:50;;;;;;;12.05;1.80;;;;;;;2.65;100.00;101067.44;6293220;28;20037;-86
2023/01/31 02:12:52;;;;;;;7.53;1.90;;;;;;;2.71;100.00;101057.81;6295652;28;20044;-86
2023/01/31 02:15:54;;;;;;;13.88;1.63;;;;;;;2.72;100.00;101058.66;6306575;28;20058;-87
2023/01/31 02:18:57;;;;;;;13.57;1.77;;;;;;;2.75;100.00;101059.34;6305390;28;20047;-87
2023/01/31 02:22:26;;;;;;;8.13;1.83;;;;;;;2.77;100.00;101061.88;6307603;28;20071;-86
2023/01/31 02:26:23;;;;;;;8.18;2.10;;;;;;;2.72;100.00;101079.09;6302439;28;20059;-90
2023/01/31 02:30:01;;;;;;;10.95;2.13;;;;;;;2.67;100.00;101069.03;6307644;28;20047;-91
2023/01/31 02:33:12;;;;;;;13.13;2.72;;;;;;;2.63;100.00;101070.03;6302769;28;20048;-90
2023/01/31 02:36:27;;;;;;;;;;;;;;;2.56;100.00;101072.00;6318225;28;20382;-90
2023/01/31 02:40:16;;;;;;;9.48;2.65;;;;;;;2.55;100.00;101090.75;6307492;28;20347;-89
2023/01/31 02:44:58;;;;;;;15.13;2.60;;;;;;;2.64;100.00;101076.81;6298751;28;20055;-90
2023/01/31 02:47:39;;;;;;;15.68;2.58;;;;;;;2.72;100.00;101072.25;6295904;28;20622;-89
2023/01/31 02:51:10;;;;;;;19.65;2.72;;;;;;;2.72;100.00;101062.03;6299383;28;20071;-88
2023/01/31 02:54:16;;;;;;;8.05;1.92;;;;;;;2.85;100.00;101076.91;6290558;28;20040;-87
2023/01/31 02:57:18;;;;;;;17.05;2.13;;;;;;;2.87;100.00;101077.69;6281728;28;20549;-88
2023/01/31 03:00:21;;;;;;;10.65;2.35;;;;;;;2.83;100.00;101079.50;6305263;28;20063;-89
2023/01/31 03:03:31;;;;;;;9.57;2.17;;;;;;;2.86;100.00;101073.44;6299175;28;20047;-87
2023/01/31 03:06:35;;;;;;;13.50;2.38;;;;;;;2.86;100.00;101070.88;6288575;28;20709;-88
2023/01/31 03:10:15;;;;;;;15.00;2.65;;;;;;;2.88;100.00;101071.66;6288071;28;20413;-87
2023/01/31 03:13:35;;;;;;;12.07;2.70;;;;;;;2.99;100.00;101074.66;6300320;28;20448;-88
2023/01/31 03:17:31;;;;;;;20.58;2.70;;;;;;;2.97;100.00;101068.78;6311282;28;20135;-87
2023/01/31 03:20:36;;;;;;;11.40;3.67;;;;;;;2.95;100.00;101083.34;6254082;28;20041;-89
2023/01/31 03:23:44;;;;;;;13.10;2.85;;;;;;;3.00;100.00;101049.00;6256139;28;20102;-89
2023/01/31 03:26:47;;;;;;;11.40;1.88;;;;;;;3.01;100.00;101042.19;6223176;28;20554;-89
2023/01/31 03:29:52;;;;;;;12.93;2.47;;;;;;;3.03;100.00;101037.81;6233977;28;20057;-89
2023/01/31 03:33:13;;;;;;;8.07;1.60;;;;;;;3.03;100.00;101040.38;6240450;28;20083;-89
2023/01/31 03:36:27;;;;;;;7.30;2.17;;;;;;;3.07;100.00;101033.44;6256532;28;20045;-90
2023/01/31 03:39:58;;;;;;;17.13;2.28;;;;;;;2.95;100.00;101017.69;6220179;28;20459;-89
2023/01/31 03:43:19;;;;;;;9.40;2.10;;;;;;;2.85;100.00;101015.56;6254560;28;20136;-89
2023/01/31 03:46:33;;;;;;;10.70;1.88;;;;;;;2.75;100.00;101017.63;6233456;28;20459;-90
2023/01/31 03:49:41;;;;;;;6.57;1.80;;;;;;;2.55;100.00;101021.78;6257941;28;20041;-89
2023/01/31 03:52:56;;;;;;;14.95;1.80;;;;;;;2.53;100.00;101017.59;6217522;28;20071;-89
2023/01/31 03:56:31;;;;;;;11.65;2.45;;;;;;;2.47;100.00;101030.63;6247548;28;20072;-88
2023/01/31 03:59:37;;;;;;;8.10;1.60;;;;;;;2.43;100.00;101029.06;6232401;28;20049;-88
2023/01/31 04:02:40;;;;;;;8.95;1.70;;;;;;;2.44;100.00;101031.56;6233672;28;20630;-88
2023/01/31 04:05:43;;;;;;;13.35;2.53;;;;;;;2.37;100.00;101045.47;6233978;28;20050;-88
2023/01/31 04:08:45;;;;;;;15.27;2.72;;;;;;;2.30;100.00;101024.41;6233911;28;20542;-89
2023/01/31 04:11:49;;;;;;;14.02;2.78;;;;;;;2.33;100.00;101029.38;6206553;28;20049;-88
2023/01/31 04:14:51;;;;;;;12.57;2.22;;;;;;;2.34;100.00;101022.59;6234115;28;20128;-89
2023/01/31 04:17:52;;;;;;;12.18;1.95;;;;;;;2.45;100.00;101017.91;6217346;28;20061;-90
2023/01/31 04:20:54;;;;;;;14.40;1.88;;;;;;;2.54;100.00;101026.97;6233742;28;20050;-89
2023/01/31 04:23:56;;;;;;;15.13;1.90;;;;;;;2.59;100.00;101030.16;6235218;28;20155;-88
2023/01/31 04:26:58;;;;;;;21.02;4.15;;;;;;;2.65;100.00;101040.16;6234389;28;20049;-88
2023/01/31 04:29:59;;;;;;;8.07;2.33;;;;;;;2.73;100.00;101032.19;6235383;28;20136;-89
2023/01/31 04:33:01;;;;;;;8.45;2.03;;;;;;;2.75;100.00;101038.06;6234129;28;20188;-89
2023/01/31 04:36:03;;;;;;;8.65;2.22;;;;;;;2.73;100.00;101038.16;6266345;28;20083;-88
2023/01/31 04:39:05;;;;;;;10.15;1.90;;;;;;;2.60;100.00;101031.81;6309108;28;20123;-89
2023/01/31 04:42:07;;;;;;;9.48;2.38;;;;;;;2.45;100.00;101038.34;6300054;28;20050;-88
2023/01/31 04:45:09;;;;;;;9.85;1.98;;;;;;;2.45;100.00;101025.56;6299295;28;20052;-88
2023/01/31 04:48:12;;;;;;;8.90;2.28;;;;;;;2.34;100.00;101022.59;6302287;28;20110;-88
2023/01/31 04:51:13;;;;;;;9.90;2.13;;;;;;;2.34;100.00;101025.97;6309332;28;20036;-88
2023/01/31 04:54:15;;;;;;;8.23;2.22;;;;;;;2.29;100.00;101035.53;6301242;28;20047;-87
2023/01/31 04:57:17;;;;;;;9.57;2.20;;;;;;;2.25;100.00;101030.56;6301378;28;20173;-88
2023/01/31 05:00:19;;;;;;;9.60;2.15;;;;;;;2.09;100.00;101040.50;6300259;28;20531;-88
2023/01/31 05:03:21;;;;;;;7.82;1.80;;;;;;;2.15;100.00;101041.13;6303974;28;20040;-88
2023/01/31 05:06:23;;;;;;;11.55;2.17;;;;;;;2.21;100.00;101034.97;6300424;28;20043;-88
2023/01/31 05:09:25;;;;;;;11.27;1.90;;;;;;;2.31;100.00;101040.56;6291824;28;20040;-88
2023/01/31 05:12:27;;;;;;;12.43;2.08;;;;;;;2.32;100.00;101035.41;6301949;28;20044;-88
2023/01/31 05:15:29;;;;;;;4.32;1.60;;;;;;;2.33;100.00;101034.50;6283033;28;20064;-88
2023/01/31 05:18:30;;;;;;;9.55;2.25;;;;;;;2.36;100.00;101038.66;6308346;28;20205;-88
2023/01/31 05:21:53;;;;;;;9.45;1.70;;;;;;;2.40;100.00;101037.66;6311113;28;20036;-88
2023/01/31 05:24:55;;;;;;;9.65;2.60;;;;;;;2.42;100.00;101027.41;6309373;28;20101;-88
2023/01/31 05:27:59;;;;;;;16.83;3.30;;;;;;;2.47;100.00;101023.78;6310864;28;20039;-88
2023/01/31 05:31:03;;;;;;;14.88;2.17;;;;;;;2.51;100.00;101015.13;6310516;28;20042;-87
2023/01/31 05:34:06;;;;;;;9.07;1.90;;;;;;;2.47;100.00;101016.13;6309475;28;20040;-87
2023/01/31 05:37:07;;;;;;;16.98;2.50;;;;;;;2.46;100.00;101016.16;6308795;28;20048;-87
2023/01/31 05:40:12;;;;;;;9.73;2.63;;;;;;;2.42;100.00;101020.56;6298648;28;20046;-87
2023/01/31 05:43:14;;;;;;;6.90;2.10;;;;;;;2.39;100.00;101017.31;6301581;28;20641;-88
2023/01/31 05:46:16;;;;;;;9.77;2.60;;;;;;;2.51;100.00;101016.81;6311400;28;20036;-87
2023/01/31 05:49:17;;;;;;;10.90;2.42;;;;;;;2.60;100.00;101016.50;6292095;28;20051;-87
2023/01/31 05:52:19;;;;;;;12.18;3.10;;;;;;;2.73;100.00;101014.28;6307901;28;20029;-87
2023/01/31 05:55:22;;;;;;;13.38;2.55;;;;;;;2.72;100.00;101013.47;6309607;28;20040;-88
2023/01/31 05:58:24;;;;;;;9.82;2.75;;;;;;;2.68;100.00;101008.53;6310115;28;20040;-87
2023/01/31 06:01:26;;;;;;;9.15;2.80;;;;;;;2.74;100.00;101004.03;6311545;28;20044;-88
2023/01/31 06:04:28;;;;;;;7.13;2.28;;;;;;;2.75;100.00;100999.72;6307224;28;20540;-87
2023/01/31 06:07:30;;;;;;;11.43;2.53;;;;;;;2.72;100.00;100995.56;6299605;28;20141;-87
2023/01/31 06:10:32;;;;;;;10.27;2.90;;;;;;;2.72;100.00;101004.97;6305688;28;20170;-88
2023/01/31 06:13:33;;;;;;;10.35;2.22;;;;;;;2.75;100.00;100995.44;6303208;28;20076;-88
2023/01/31 06:16:35;;;;;;;10.45;2.40;;;;;;;2.79;100.00;101002.13;6302214;28;20517;-88
2023/01/31 06:19:37;;;;;;;8.63;3.10;;;;;;;2.83;100.00;100990.03;6304919;28;20571;-88
2023/01/31 06:22:40;;;;;;;8.40;1.80;;;;;;;2.84;100.00;100990.88;6309983;28;20089;-88
2023/01/31 06:25:42;;;;;;;6.78;2.10;;;;;;;2.91;100.00;100992.31;6309661;28;20101;-88
2023/01/31 06:28:43;;;;;;;9.40;2.15;;;;;;;2.88;100.00;100994.97;6288369;28;20139;-88
2023/01/31 06:31:47;;;;;;;12.75;3.17;;;;;;;2.89;100.00;100992.38;6309781;28;20048;-88
2023/01/31 06:34:49;;;;;;;10.05;2.00;;;;;;;2.93;100.00;100995.63;6310400;28;20040;-88
2023/01/31 06:37:51;;;;;;;8.98;2.03;;;;;;;3.01;100.00;100997.00;6291861;28;20086;-88
2023/01/31 06:40:53;;;;;;;9.40;2.28;;;;;;;3.04;100.00;100985.81;6298382;28;20036;-89
2023/01/31 06:43:55;;;;;;;20.15;2.95;;;;;;;3.12;100.00;100980.38;6298736;28;20389;-88
2023/01/31 06:47:01;;;;;;;8.85;2.70;;;;;;;3.07;100.00;100967.78;6303571;28;20356;-88
2023/01/31 06:50:03;;;;;;;11.60;3.35;;;;;;;3.12;100.00;100972.72;6313995;28;20044;-89
2023/01/31 06:53:05;;;;;;;15.27;4.30;;;;;;;3.21;100.00;100973.16;6314613;28;20044;-88
2023/01/31 06:56:07;;;;;;;15.63;4.25;;;;;;;3.28;100.00;100967.78;6315525;28;20093;-88
2023/01/31 06:59:09;;;;;;;11.50;3.83;;;;;;;3.30;100.00;100969.38;6315158;28;20055;-87
2023/01/31 07:02:11;;;;;;;15.48;3.90;;;;;;;3.26;100.00;100967.03;6309086;28;20498;-88
2023/01/31 07:05:14;;;;;;;18.13;4.10;;;;;;;3.27;100.00;100956.72;6309095;28;20525;-88
2023/01/31 07:08:16;;;;;;;11.90;4.18;;;;;;;3.28;100.00;100953.28;6308756;28;20044;-88
2023/01/31 07:11:17;;;;;;;11.52;4.93;;;;;;;3.44;100.00;100953.47;6308284;28;20036;-89
2023/01/31 07:14:19;;;;;;;17.75;4.78;;;;;;;3.36;100.00;100945.28;6292892;28;20049;-89
2023/01/31 07:17:21;;;;;;;14.27;5.07;;;;;;;3.31;100.00;100942.09;6311626;28;20072;-89
2023/01/31 07:20:23;;;;;;;15.65;5.00;;;;;;;3.34;100.00;100924.88;6306749;28;20454;-89
2023/01/31 07:23:25;;;;;;;24.00;6.30;;;;;;;3.44;100.00;100923.59;6307472;28;20063;-88
2023/01/31 07:26:27;;;;;;;15.65;5.07;;;;;;;3.38;100.00;100910.22;6305888;28;20039;-88
2023/01/31 07:29:29;;;;;;;22.05;5.75;;;;;;;3.39;100.00;100899.09;6303984;28;20059;-88
2023/01/31 07:32:31;;;;;;;15.15;6.03;;;;;;;3.48;100.00;100898.72;6307893;28;20068;-88
2023/01/31 07:35:33;;;;;;;20.80;6.15;;;;;;;3.51;100.00;100898.56;6297965;28;20647;-88
2023/01/31 07:38:35;;;;;;;15.75;5.57;;;;;;;3.52;100.00;100895.09;6304003;28;20244;-88
2023/01/31 07:41:37;;;;;;;20.30;5.80;;;;;;;3.62;100.00;100893.78;6309338;28;20111;-88
2023/01/31 07:44:41;;;;;;;15.65;5.85;;;;;;;3.67;100.00;100881.63;6309316;28;20048;-88
2023/01/31 07:47:43;;;;;;;26.13;6.95;;;;;;;3.72;100.00;100889.09;6305446;28;20040;-88
2023/01/31 07:50:45;;;;;;;16.70;4.72;;;;;;;3.76;100.00;100877.00;6310178;28;20028;-89
2023/01/31 07:53:47;;;;;;;14.93;5.10;;;;;;;3.80;100.00;100863.16;6305167;28;20032;-88
2023/01/31 07:56:50;;;;;;;18.40;5.63;;;;;;;3.88;100.00;100868.78;6309160;28;20044;-88
2023/01/31 07:59:52;;;;;;;13.18;5.68;;;;;;;3.92;100.00;100872.00;6309900;28;20063;-87
2023/01/31 08:06:14;;;;;;;15.25;4.90;;;;;;;4.01;100.00;100872.41;6307570;28;20036;-88
2023/01/31 08:09:16;;;;;;;18.35;5.72;;;;;;;4.06;100.00;100867.91;6313812;28;20093;-88
2023/01/31 08:12:18;;;;;;;14.25;5.00;;;;;;;4.16;100.00;100859.81;6313524;28;20090;-88
2023/01/31 08:15:19;;;;;;;10.15;4.82;;;;;;;4.19;100.00;100846.84;6313067;28;20051;-88
2023/01/31 08:18:22;;;;;;;12.93;5.25;;;;;;;4.34;100.00;100835.88;6311430;28;20036;-88
2023/01/31 08:21:24;;;;;;;12.88;4.88;;;;;;;4.46;100.00;100825.03;6308779;28;20721;-88
2023/01/31 08:24:26;;;;;;;16.10;6.05;;;;;;;4.63;100.00;100821.63;6311867;28;20165;-88
2023/01/31 08:27:27;;;;;;;11.48;4.88;;;;;;;4.53;100.00;100823.00;6283924;28;20048;-88
2023/01/31 08:30:30;;;;;;;14.10;5.05;;;;;;;4.43;100.00;100817.50;6310372;28;20619;-87
2023/01/31 08:33:32;;;;;;;16.70;5.20;;;;;;;4.35;100.00;100819.59;6308589;28;20040;-89
2023/01/31 08:36:34;;;;;;;22.40;6.03;;;;;;;4.35;100.00;100829.84;6303366;28;20055;-89
2023/01/31 08:39:36;;;;;;;18.50;5.40;;;;;;;4.45;100.00;100810.56;6306169;28;20409;-88
2023/01/31 08:42:38;;;;;;;14.82;5.60;;;;;;;4.57;100.00;100808.28;6304902;28;20048;-89
2023/01/31 08:45:41;;;;;;;14.07;5.78;;;;;;;4.59;100.00;100801.34;6299127;28;20510;-89
2023/01/31 08:48:43;;;;;;;20.35;6.18;;;;;;;4.64;100.00;100800.22;6310314;28;20036;-89
2023/01/31 08:51:44;;;;;;;17.27;6.00;;;;;;;4.64;100.00;100789.97;6304971;28;20040;-89
2023/01/31 08:54:46;;;;;;;15.77;5.65;;;;;;;4.70;100.00;100802.47;6300364;28;20409;-89
2023/01/31 08:57:50;;;;;;;16.70;6.45;;;;;;;4.74;100.00;100778.34;6298661;28;20047;-89
2023/01/31 09:01:05;;;;;;;14.90;5.82;;;;;;;4.79;100.00;100782.41;6293759;28;20458;-88
2023/01/31 09:04:08;;;;;;;18.30;6.38;;;;;;;4.83;100.00;100779.59;6299865;28;20514;-90
2023/01/31 09:07:10;;;;;;;14.73;6.32;;;;;;;4.84;100.00;100783.00;6298949;28;20051;-89
2023/01/31 09:10:11;;;;;;;15.40;5.85;;;;;;;4.85;100.00;100764.97;6291013;28;20036;-88
2023/01/31 09:13:13;;;;;;;12.30;5.85;;;;;;;4.89;100.00;100773.34;6291078;28;20426;-88
2023/01/31 09:16:16;;;;;;;13.63;5.78;;;;;;;4.91;100.00;100764.66;6295169;28;20052;-89
2023/01/31 09:19:19;;;;;;;19.40;6.85;;;;;;;4.88;100.00;100777.63;6300237;28;20048;-89
2023/01/31 09:22:21;;;;;;;15.82;6.75;;;;;;;4.78;100.00;100779.03;6296612;28;20605;-89
2023/01/31 09:25:23;;;;;;;17.23;6.07;;;;;;;4.59;100.00;100778.28;6292704;28;20048;-89
2023/01/31 09:28:44;;;;;;;13.45;6.07;;;;;;;4.38;100.00;100770.75;6295054;28;20036;-91
2023/01/31 09:31:50;;;;;;;18.60;6.13;;;;;;;4.30;100.00;100776.25;6300561;28;20095;-91
2023/01/31 09:34:52;;;;;;;14.88;6.45;;;;;;;4.26;100.00;100774.75;6293033;28;20044;-91
2023/01/31 09:37:54;;;;;;;13.00;5.70;;;;;;;4.19;100.00;100777.69;6298958;28;20040;-91
2023/01/31 09:41:01;;;;;;;15.95;6.72;;;;;;;4.06;100.00;100762.91;6300162;28;20084;-91
2023/01/31 09:44:12;;;;;;;17.05;7.45;;;;;;;3.98;100.00;100771.88;6298364;28;20512;-90
2023/01/31 09:47:27;;;;;;;14.23;6.70;;;;;;;3.91;100.00;100770.50;6295602;28;20370;-94
2023/01/31 09:50:54;;;;;;;16.33;6.78;;;;;;;3.79;100.00;100769.34;6303196;28;20039;-93
2023/01/31 09:53:56;;;;;;;16.40;7.10;;;;;;;3.74;100.00;100751.63;6309045;28;20040;-93
2023/01/31 09:57:11;;;;;;;13.80;7.68;;;;;;;3.82;100.00;100748.69;6300967;28;20051;-92
2023/01/31 10:00:35;;;;;;;14.65;6.20;;;;;;;3.81;100.00;100737.63;6294649;28;20048;-92
2023/01/31 10:03:56;;;;;;;14.02;5.93;;;;;;;3.81;100.00;100727.38;6301160;28;20766;-91
2023/01/31 10:07:17;;;;;;;10.45;5.68;;;;;;;3.73;100.00;100728.66;6299315;28;20032;-91
2023/01/31 10:10:36;;;;;;;12.38;6.05;;;;;;;3.75;100.00;100721.72;6290039;28;20125;-90
2023/01/31 10:13:45;;;;;;;10.88;4.88;;;;;;;3.83;100.00;100730.72;6306747;28;20094;-90
2023/01/31 10:17:21;;;;;;;9.20;4.78;;;;;;;3.85;100.00;100728.91;6306189;28;20382;-90
2023/01/31 10:20:49;;;;;;;9.43;4.97;;;;;;;3.95;100.00;100723.31;6294807;28;20501;-90
2023/01/31 10:24:00;;;;;;;10.95;4.45;;;;;;;4.00;100.00;100711.97;6308383;28;20048;-89
2023/01/31 10:27:10;;;;;;;9.98;4.47;;;;;;;4.08;100.00;100701.34;6299701;28;20603;-88
2023/01/31 10:30:23;;;;;;;13.38;4.78;;;;;;;4.18;100.00;100697.44;6298425;28;20055;-89
2023/01/31 10:33:37;;;;;;;11.60;4.63;;;;;;;4.26;100.00;100686.81;6305429;28;20043;-89
2023/01/31 10:36:45;;;;;;;7.75;4.60;;;;;;;4.40;100.00;100689.50;6307284;28;20071;-89
2023/01/31 10:39:53;;;;;;;10.45;5.35;;;;;;;4.50;100.00;100679.63;6314004;28;20051;-89
2023/01/31 10:43:04;;;;;;;7.75;4.93;;;;;;;4.50;100.00;100682.19;6313303;28;20040;-89
2023/01/31 10:46:11;;;;;;;12.57;5.55;;;;;;;4.46;100.00;100663.56;6308673;28;20086;-88
2023/01/31 10:49:13;;;;;;;13.52;6.45;;;;;;;4.56;100.00;100650.28;6312136;28;20040;-89
2023/01/31 10:52:31;;;;;;;13.23;5.40;;;;;;;4.61;100.00;100643.16;6304099;28;20516;-89
2023/01/31 10:55:48;;;;;;;10.25;5.45;;;;;;;4.74;100.00;100637.31;6307524;28;20048;-88
2023/01/31 10:58:50;;;;;;;9.55;4.57;;;;;;;4.78;100.00;100621.78;6310345;28;20522;-88
2023/01/31 11:01:53;;;;;;;12.20;5.13;;;;;;;4.72;100.00;100610.94;6303048;28;20384;-89
2023/01/31 11:04:58;;;;;;;12.13;6.50;;;;;;;4.75;100.00;100612.50;6302448;28;20115;-89
2023/01/31 11:08:15;;;;;;;12.30;5.55;;;;;;;4.85;100.00;100612.84;6298139;28;20413;-88
2023/01/31 11:11:21;;;;;;;11.93;5.57;;;;;;;4.92;100.00;100609.03;6298864;28;20041;-88
2023/01/31 11:14:23;;;;;;;21.67;6.35;;;;;;;4.87;100.00;100629.81;6301252;28;20048;-89
2023/01/31 11:17:29;;;;;;;9.48;5.28;;;;;;;4.95;100.00;100599.44;6305657;28;20092;-90
2023/01/31 11:20:35;;;;;;;14.75;5.88;;;;;;;5.10;100.00;100613.16;6296706;28;20057;-89
2023/01/31 11:23:37;;;;;;;13.73;6.50;;;;;;;5.07;100.00;100579.13;6295137;28;20458;-89
2023/01/31 11:26:54;;;;;;;12.00;6.35;;;;;;;5.03;100.00;100590.50;6303246;28;20070;-89
2023/01/31 11:29:58;;;;;;;16.65;7.07;;;;;;;5.06;100.00;100598.00;6303332;28;20394;-89
2023/01/31 11:33:01;;;;;;;13.30;6.38;;;;;;;5.02;100.00;100591.38;6295357;28;20045;-89
2023/01/31 11:36:14;;;;;;;11.73;6.38;;;;;;;4.95;100.00;100602.00;6301935;28;20504;-90
2023/01/31 11:39:37;;;;;;;12.48;6.38;;;;;;;4.90;100.00;100577.50;6303319;28;20040;-89
2023/01/31 11:43:03;;;;;;;13.13;7.30;;;;;;;4.81;100.00;100590.81;6300677;28;20043;-89
2023/01/31 11:46:06;;;;;;;21.88;8.65;;;;;;;4.75;100.00;100603.06;6311439;28;20075;-90
2023/01/31 11:49:12;;;;;;;23.52;8.32;;;;;;;4.72;100.00;100576.75;6302834;28;20059;-89
2023/01/31 11:52:19;;;;;;;17.23;8.38;;;;;;;4.75;100.00;100561.22;6307266;28;20047;-89
2023/01/31 11:55:22;;;;;;;17.95;7.30;;;;;;;4.72;100.00;100569.91;6304895;28;20036;-89
2023/01/31 11:58:37;;;;;;;16.67;7.60;;;;;;;4.77;100.00;100548.28;6300853;28;20044;-89
2023/01/31 12:01:53;;;;;;;15.70;8.07;;;;;;;4.81;100.00;100539.53;6301676;28;20043;-88
2023/01/31 12:04:56;;;;;;;13.27;7.32;;;;;;;4.83;100.00;100573.63;6296425;28;20498;-90
2023/01/31 12:07:57;;;;;;;15.63;7.82;;;;;;;4.83;100.00;100532.59;6306632;28;20511;-89
2023/01/31 12:11:19;;;;;;;13.50;7.60;;;;;;;4.84;100.00;100536.81;6312731;28;20074;-88
2023/01/31 12:14:23;;;;;;;16.05;7.47;;;;;;;4.86;100.00;100543.50;6301619;28;20052;-90
2023/01/31 12:17:29;;;;;;;14.82;8.75;;;;;;;4.86;100.00;100543.50;6303341;28;20048;-89
2023/01/31 12:20:52;;;;;;;13.35;7.28;;;;;;;4.88;100.00;100536.56;6302065;28;20124;-88
2023/01/31 12:24:25;;;;;;;15.27;8.27;;;;;;;4.82;100.00;100526.66;6302959;28;20477;-90
2023/01/31 12:28:08;;;;;;;13.65;8.18;;;;;;;4.81;100.00;100517.28;6304441;28;20148;-89
2023/01/31 12:31:30;;;;;;;17.73;8.30;;;;;;;4.82;100.00;100512.97;6238335;28;20041;-90
2023/01/31 12:35:02;;;;;;;13.75;8.05;;;;;;;4.74;100.00;100523.66;6242987;28;20068;-89
2023/01/31 12:38:19;;;;;;;16.58;8.27;;;;;;;4.69;100.00;100513.63;6257899;28;20049;-89
2023/01/31 12:41:56;;;;;;;16.67;7.97;;;;;;;4.69;100.00;100544.41;6252366;28;20078;-89
2023/01/31 12:45:14;;;;;;;14.02;8.15;;;;;;;4.66;100.00;100544.59;6158801;28;20505;-89
2023/01/31 12:48:52;;;;;;;15.73;9.23;;;;;;;4.71;100.00;100516.13;6161438;28;20054;-89
2023/01/31 12:52:00;;;;;;;17.33;8.27;;;;;;;4.73;100.00;100525.41;6155437;28;20054;-89
2023/01/31 12:55:17;;;;;;;14.35;7.90;;;;;;;4.69;100.00;100530.78;6143864;28;20153;-89
2023/01/31 12:58:39;;;;;;;18.35;8.70;;;;;;;4.64;100.00;100512.25;6156717;28;20628;-88
2023/01/31 13:02:10;;;;;;;14.20;8.65;;;;;;;4.60;100.00;100537.25;6159601;28;20176;-89
2023/01/31 13:05:37;;;;;;;16.05;8.80;;;;;;;4.57;100.00;100541.69;6198035;28;20071;-87
2023/01/31 13:08:42;;;;;;;12.90;8.30;;;;;;;4.62;100.00;100537.13;6233380;28;20132;-88
2023/01/31 13:12:06;;;;;;;17.80;9.55;;;;;;;4.66;100.00;100529.19;6230741;28;20794;-88
2023/01/31 13:15:30;;;;;;;15.02;8.55;;;;;;;4.53;100.00;100534.16;6213870;28;20535;-88
2023/01/31 13:18:34;;;;;;;16.90;8.45;;;;;;;4.51;100.00;100533.41;6233654;28;20049;-89
2023/01/31 13:21:43;;;;;;;11.63;8.25;;;;;;;4.53;100.00;100549.53;6270588;28;20055;-89
2023/01/31 13:24:49;;;;;;;14.90;8.55;;;;;;;4.50;100.00;100541.22;6301260;28;20051;-89
2023/01/31 13:28:01;;;;;;;13.20;9.07;;;;;;;4.52;100.00;100535.09;6308883;28;20078;-88
2023/01/31 13:31:12;;;;;;;13.60;8.40;;;;;;;4.58;100.00;100522.84;6308360;28;20040;-88
2023/01/31 13:34:33;;;;;;;13.23;8.32;;;;;;;4.60;100.00;100531.28;6297806;28;20330;-88
2023/01/31 13:37:38;;;;;;;18.40;9.10;;;;;;;4.63;100.00;100546.50;6295218;28;20040;-88
2023/01/31 13:40:52;;;;;;;11.30;8.48;;;;;;;4.63;100.00;100547.31;6300188;28;20119;-89
2023/01/31 13:43:57;;;;;;;14.93;8.80;;;;;;;4.61;100.00;100528.63;6303235;28;20568;-87
2023/01/31 13:47:11;;;;;;;12.35;7.82;;;;;;;4.62;100.00;100530.28;6307607;28;20109;-91
2023/01/31 13:50:49;;;;;;;11.73;7.93;;;;;;;4.63;100.00;100526.81;6285337;28;20064;-91
2023/01/31 13:54:13;;;;;;;12.02;7.22;;;;;;;4.71;100.00;100513.56;6305376;28;20047;-91
2023/01/31 13:57:32;;;;;;;9.27;7.10;;;;;;;4.76;100.00;100493.63;6299937;28;20631;-88
2023/01/31 14:00:39;;;;;;;11.18;6.60;;;;;;;4.79;100.00;100492.63;6292127;28;20045;-90
2023/01/31 14:04:13;;;;;;;10.80;6.75;;;;;;;4.80;100.00;100482.31;6298265;28;20048;-90
2023/01/31 14:07:23;;;;;;;8.98;5.80;;;;;;;4.81;100.00;100476.25;6305040;28;20051;-88
2023/01/31 14:10:27;;;;;;;8.38;6.07;;;;;;;4.88;100.00;100492.13;6300493;28;20090;-89
2023/01/31 14:13:32;;;;;;;7.90;6.18;;;;;;;4.87;100.00;100490.47;6306640;28;20162;-87
2023/01/31 14:16:42;;;;;;;6.93;5.60;;;;;;;4.85;100.00;100482.06;6309800;28;20043;-88
2023/01/31 14:19:44;;;;;;;;;;;;;;;4.90;100.00;100487.75;6308107;28;20057;-87
2023/01/31 14:23:25;;;;;;;7.65;5.50;;;;;;;4.93;100.00;100472.19;6309346;28;19930;-86
2023/01/31 14:26:48;;;;;;;9.77;6.07;;;;;;;4.96;100.00;100480.50;6298089;28;20154;-88
2023/01/31 14:30:05;;;;;;;8.27;5.40;;;;;;;4.97;100.00;100482.19;6302203;28;20160;-87
2023/01/31 14:33:10;;;;;;;10.38;5.85;;;;;;;5.01;100.00;100462.31;6309774;28;20044;-87